createdAt,value
2023-12-30T00:00:18.181Z,8.77
2023-12-30T00:04:22.745Z,8.73
2023-12-30T00:08:24.397Z,9.93
2023-12-30T00:12:26.011Z,5.27
2023-12-30T00:16:28.332Z,12.60
2023-12-30T00:20:31.452Z,10.00
2023-12-30T00:24:33.015Z,10.30
2023-12-30T00:28:34.763Z,8.43
2023-12-30T00:32:36.464Z,10.63
2023-12-30T00:36:43.968Z,7.40
2023-12-30T00:40:45.870Z,13.27
2023-12-30T00:44:51.460Z,13.50
2023-12-30T00:49:07.701Z,7.87
2023-12-30T00:53:27.584Z,9.93
2023-12-30T00:57:32.394Z,11.33
2023-12-30T01:01:34.268Z,9.57
2023-12-30T01:05:51.444Z,12.07
2023-12-30T01:09:55.704Z,8.37
2023-12-30T01:13:58.243Z,14.37
2023-12-30T01:18:00.025Z,7.93
2023-12-30T01:22:03.749Z,13.00
2023-12-30T01:26:06.697Z,6.43
2023-12-30T01:30:08.637Z,7.93
2023-12-30T01:34:10.375Z,9.53
2023-12-30T01:38:11.970Z,9.73
2023-12-30T01:42:14.972Z,13.33
2023-12-30T01:46:17.085Z,7.13
2023-12-30T01:50:19.137Z,9.33
2023-12-30T01:54:22.244Z,5.60
2023-12-30T01:58:25.448Z,7.13
2023-12-30T02:02:27.886Z,8.27
2023-12-30T02:06:29.695Z,7.63
2023-12-30T02:10:31.346Z,11.00
2023-12-30T02:14:34.322Z,10.23
2023-12-30T02:18:35.955Z,8.10
2023-12-30T02:22:41.910Z,10.87
2023-12-30T02:26:43.518Z,7.33
2023-12-30T02:30:45.092Z,9.77
2023-12-30T02:34:46.855Z,10.20
2023-12-30T02:38:49.737Z,9.73
2023-12-30T02:42:51.476Z,12.57
2023-12-30T02:46:53.225Z,10.07
2023-12-30T02:50:54.738Z,7.60
2023-12-30T02:54:57.657Z,9.23
2023-12-30T02:59:00.655Z,8.27
2023-12-30T03:03:03.150Z,14.83
2023-12-30T03:07:04.912Z,7.83
2023-12-30T03:11:09.220Z,14.17
2023-12-30T03:15:11.192Z,12.13
2023-12-30T03:19:13.006Z,10.17
2023-12-30T03:23:14.667Z,12.40
2023-12-30T03:27:17.676Z,7.27
2023-12-30T03:31:23.622Z,10.17
2023-12-30T03:35:25.285Z,10.43
2023-12-30T03:39:27.825Z,7.53
2023-12-30T03:43:30.746Z,9.03
2023-12-30T03:47:32.432Z,8.77
2023-12-30T03:51:33.986Z,6.97
2023-12-30T03:55:35.585Z,10.03
2023-12-30T03:59:40.340Z,12.70
2023-12-30T04:03:41.982Z,7.13
2023-12-30T04:07:43.611Z,10.10
2023-12-30T04:11:45.342Z,11.63
2023-12-30T04:15:48.243Z,10.13
2023-12-30T04:19:50.294Z,12.03
2023-12-30T04:23:51.915Z,5.40
2023-12-30T04:27:53.511Z,11.53
2023-12-30T04:31:56.704Z,8.30
2023-12-30T04:35:58.270Z,7.80
2023-12-30T04:39:59.817Z,10.37
2023-12-30T04:44:01.393Z,6.30
2023-12-30T04:48:05.461Z,12.03
2023-12-30T04:52:07.284Z,10.93
2023-12-30T04:56:16.063Z,11.40
2023-12-30T05:00:21.886Z,15.17
2023-12-30T05:04:26.689Z,11.03
2023-12-30T05:08:28.304Z,6.03
2023-12-30T05:12:29.898Z,10.60
2023-12-30T05:16:32.317Z,9.93
2023-12-30T05:20:35.316Z,8.70
2023-12-30T05:24:37.373Z,11.30
2023-12-30T05:28:38.856Z,8.03
2023-12-30T05:32:40.546Z,9.53
2023-12-30T05:36:44.652Z,7.07
2023-12-30T05:40:46.199Z,9.60
2023-12-30T05:44:48.807Z,15.13
2023-12-30T05:48:50.890Z,10.97
2023-12-30T05:52:54.116Z,11.47
2023-12-30T05:56:55.793Z,9.40
2023-12-30T06:00:59.752Z,11.00
2023-12-30T06:05:01.419Z,9.93
2023-12-30T06:09:04.616Z,8.17
2023-12-30T06:13:07.513Z,11.97
2023-12-30T06:17:09.066Z,10.53
2023-12-30T06:21:11.038Z,12.03
2023-12-30T06:25:14.093Z,14.50
2023-12-30T06:29:15.743Z,15.00
2023-12-30T06:33:17.811Z,11.37
2023-12-30T06:37:20.591Z,9.83
2023-12-30T06:41:24.912Z,5.53
2023-12-30T06:45:26.933Z,8.23
2023-12-30T06:49:30.161Z,10.57
2023-12-30T06:53:32.081Z,9.53
2023-12-30T06:57:34.967Z,7.93
2023-12-30T07:01:37.995Z,9.63
2023-12-30T07:05:39.736Z,11.67
2023-12-30T07:09:41.315Z,10.53
2023-12-30T07:13:44.266Z,9.87
2023-12-30T07:17:46.152Z,9.87
2023-12-30T07:21:47.977Z,11.63
2023-12-30T07:25:49.646Z,5.87
2023-12-30T07:29:55.094Z,6.93
2023-12-30T07:33:57.020Z,10.80
2023-12-30T07:37:58.922Z,9.93
2023-12-30T07:42:00.578Z,9.43
2023-12-30T07:46:03.962Z,7.67
2023-12-30T07:50:07.563Z,9.87
2023-12-30T07:54:09.199Z,9.57
2023-12-30T07:58:10.992Z,9.40
2023-12-30T08:02:15.841Z,9.70
2023-12-30T08:06:17.600Z,6.00
2023-12-30T08:10:21.580Z,11.40
2023-12-30T08:14:23.189Z,8.10
2023-12-30T08:18:26.220Z,5.17
2023-12-30T08:22:28.151Z,7.87
2023-12-30T08:26:29.990Z,8.40
2023-12-30T08:30:31.597Z,7.43
2023-12-30T08:34:34.676Z,8.43
2023-12-30T08:38:36.560Z,7.10
2023-12-30T08:42:39.785Z,9.97
2023-12-30T08:46:41.577Z,7.47
2023-12-30T08:50:44.543Z,6.70
2023-12-30T08:54:46.826Z,13.23
2023-12-30T08:58:49.146Z,8.73
2023-12-30T09:02:50.755Z,9.73
2023-12-30T09:06:53.881Z,14.90
2023-12-30T09:10:55.662Z,12.77
2023-12-30T09:14:57.290Z,10.57
2023-12-30T09:18:59.227Z,8.90
2023-12-30T09:23:10.827Z,8.07
2023-12-30T09:27:13.313Z,8.50
2023-12-30T09:31:16.112Z,10.73
2023-12-30T09:35:17.721Z,9.13
2023-12-30T09:39:27.529Z,6.93
2023-12-30T09:43:29.598Z,9.10
2023-12-30T09:47:38.034Z,9.60
2023-12-30T09:51:40.137Z,7.23
2023-12-30T09:55:44.064Z,9.43
2023-12-30T09:59:48.216Z,10.97
2023-12-30T10:03:50.246Z,9.77
2023-12-30T10:07:52.982Z,7.57
2023-12-30T10:11:56.193Z,7.90
2023-12-30T10:15:59.933Z,11.13
2023-12-30T10:20:01.728Z,8.77
2023-12-30T10:24:11.091Z,5.23
2023-12-30T10:28:14.202Z,8.13
2023-12-30T10:32:21.724Z,5.37
2023-12-30T10:36:23.651Z,7.90
2023-12-30T10:40:25.680Z,10.70
2023-12-30T10:44:28.626Z,10.30
2023-12-30T10:48:31.777Z,9.07
2023-12-30T10:52:36.814Z,11.37
2023-12-30T10:56:45.406Z,11.60
2023-12-30T11:00:53.057Z,6.73
2023-12-30T11:04:56.386Z,10.63
2023-12-30T11:08:59.687Z,7.67
2023-12-30T11:13:01.992Z,11.43
2023-12-30T11:17:05.321Z,6.23
2023-12-30T11:21:07.354Z,5.17
2023-12-30T11:25:09.688Z,6.53
2023-12-30T11:29:12.559Z,5.93
2023-12-30T11:33:15.760Z,9.00
2023-12-30T11:37:19.370Z,10.43
2023-12-30T11:41:20.942Z,4.07
2023-12-30T11:45:22.528Z,8.63
2023-12-30T11:49:26.738Z,12.07
2023-12-30T11:53:33.937Z,11.57
2023-12-30T11:57:37.191Z,7.87
2023-12-30T12:01:39.303Z,3.43
2023-12-30T12:05:42.455Z,5.13
2023-12-30T12:09:44.322Z,7.93
2023-12-30T12:13:46.029Z,7.07
2023-12-30T12:17:50.527Z,5.97
2023-12-30T12:22:00.034Z,8.60
2023-12-30T12:26:01.832Z,9.23
2023-12-30T12:30:04.067Z,8.00
2023-12-30T12:34:20.618Z,5.33
2023-12-30T12:38:23.642Z,8.87
2023-12-30T12:42:30.711Z,7.20
2023-12-30T12:46:33.205Z,7.63
2023-12-30T12:50:35.112Z,7.37
2023-12-30T12:54:38.054Z,8.53
2023-12-30T12:58:40.000Z,9.30
2023-12-30T13:02:41.756Z,6.37
2023-12-30T13:06:43.564Z,6.37
2023-12-30T13:10:46.515Z,9.63
2023-12-30T13:14:48.538Z,10.87
2023-12-30T13:18:50.291Z,6.47
2023-12-30T13:22:51.878Z,7.40
2023-12-30T13:26:55.031Z,7.60
2023-12-30T13:30:57.380Z,6.90
2023-12-30T13:34:59.489Z,8.60
2023-12-30T13:39:01.246Z,6.57
2023-12-30T13:43:04.476Z,6.70
2023-12-30T13:47:06.259Z,7.53
2023-12-30T13:51:08.144Z,6.73
2023-12-30T13:55:09.919Z,5.70
2023-12-30T13:59:13.373Z,6.97
2023-12-30T14:03:15.280Z,7.40
2023-12-30T14:07:16.998Z,3.43
2023-12-30T14:11:18.925Z,6.30
2023-12-30T14:15:21.812Z,6.20
2023-12-30T14:19:23.620Z,5.03
2023-12-30T14:23:26.306Z,6.03
2023-12-30T14:27:28.085Z,4.20
2023-12-30T14:31:31.049Z,5.47
2023-12-30T14:35:32.601Z,5.87
2023-12-30T14:39:34.354Z,3.97
2023-12-30T14:43:36.990Z,2.80
2023-12-30T14:47:40.970Z,9.20
2023-12-30T14:51:42.618Z,3.43
2023-12-30T14:55:44.226Z,6.73
2023-12-30T14:59:45.901Z,6.90
2023-12-30T15:03:50.316Z,8.37
2023-12-30T15:07:55.764Z,5.90
2023-12-30T15:11:59.653Z,3.97
2023-12-30T15:16:01.369Z,3.20
2023-12-30T15:20:05.241Z,4.90
2023-12-30T15:24:07.057Z,7.53
2023-12-30T15:28:09.427Z,2.63
2023-12-30T15:32:12.607Z,4.10
2023-12-30T15:36:15.668Z,4.87
2023-12-30T15:40:17.544Z,4.80
2023-12-30T15:44:19.475Z,3.63
2023-12-30T15:48:21.843Z,7.20
2023-12-30T15:52:25.640Z,5.13
2023-12-30T15:56:29.646Z,4.30
2023-12-30T16:00:31.360Z,5.70
2023-12-30T16:04:33.070Z,4.67
2023-12-30T16:08:37.465Z,3.70
2023-12-30T16:12:39.059Z,2.97
2023-12-30T16:16:41.098Z,2.93
2023-12-30T16:20:42.787Z,6.87
2023-12-30T16:24:45.784Z,3.43
2023-12-30T16:28:47.759Z,3.80
2023-12-30T16:32:49.629Z,2.00
2023-12-30T16:36:51.355Z,4.07
2023-12-30T16:40:54.464Z,3.03
2023-12-30T16:44:56.196Z,3.37
2023-12-30T16:48:57.751Z,1.90
2023-12-30T16:52:59.397Z,2.53
2023-12-30T16:57:02.688Z,2.40
2023-12-30T17:01:04.333Z,1.47
2023-12-30T17:05:06.767Z,4.17
2023-12-30T17:09:08.429Z,2.83
2023-12-30T17:13:11.468Z,2.50
2023-12-30T17:17:14.089Z,2.37
2023-12-30T17:21:15.849Z,4.33
2023-12-30T17:25:17.551Z,2.30
2023-12-30T17:29:21.001Z,2.17
2023-12-30T17:33:22.715Z,5.27
2023-12-30T17:37:24.513Z,4.73
2023-12-30T17:41:26.807Z,2.53
2023-12-30T17:45:29.688Z,4.77
2023-12-30T17:49:31.307Z,3.53
2023-12-30T17:53:33.073Z,3.40
2023-12-30T17:57:34.901Z,4.67
2023-12-30T18:01:37.877Z,3.30
2023-12-30T18:05:39.713Z,1.93
2023-12-30T18:09:42.122Z,1.80
2023-12-30T18:13:45.473Z,3.57
2023-12-30T18:17:49.311Z,3.73
2023-12-30T18:21:51.949Z,2.77
2023-12-30T18:25:53.681Z,2.30
2023-12-30T18:29:56.507Z,10.83
2023-12-30T18:33:59.454Z,8.90
2023-12-30T18:38:01.034Z,3.03
2023-12-30T18:42:03.880Z,3.27
2023-12-30T18:46:05.883Z,3.37
2023-12-30T18:50:09.352Z,7.17
2023-12-30T18:54:10.961Z,1.03
2023-12-30T18:58:14.113Z,2.87
2023-12-30T19:02:16.946Z,1.87
2023-12-30T19:06:22.619Z,3.37
2023-12-30T19:10:24.504Z,2.80
2023-12-30T19:14:26.256Z,2.10
2023-12-30T19:18:27.970Z,1.97
2023-12-30T19:22:32.276Z,3.37
2023-12-30T19:26:34.185Z,4.93
2023-12-30T19:30:36.049Z,2.77
2023-12-30T19:34:37.725Z,2.13
2023-12-30T19:38:41.230Z,1.50
2023-12-30T19:42:43.966Z,3.67
2023-12-30T19:46:45.609Z,3.73
2023-12-30T19:50:47.446Z,1.80
2023-12-30T19:54:50.264Z,1.57
2023-12-30T19:58:52.038Z,3.90
2023-12-30T20:02:53.614Z,4.27
2023-12-30T20:06:55.485Z,4.83
2023-12-30T20:10:58.703Z,5.40
2023-12-30T20:15:00.354Z,4.00
2023-12-30T20:19:02.020Z,2.77
2023-12-30T20:23:03.959Z,3.27
2023-12-30T20:27:07.404Z,3.67
2023-12-30T20:31:09.721Z,4.30
2023-12-30T20:35:11.819Z,4.33
2023-12-30T20:39:17.057Z,1.77
2023-12-30T20:43:20.513Z,1.87
2023-12-30T20:47:22.080Z,2.57
2023-12-30T20:51:25.057Z,2.67
2023-12-30T20:55:26.982Z,2.90
2023-12-30T20:59:29.925Z,3.17
2023-12-30T21:03:32.136Z,1.93
2023-12-30T21:07:34.108Z,2.80
2023-12-30T21:11:36.164Z,4.10
2023-12-30T21:15:39.754Z,2.47
2023-12-30T21:19:41.440Z,5.03
2023-12-30T21:23:43.257Z,4.07
2023-12-30T21:27:44.879Z,3.67
2023-12-30T21:31:47.952Z,3.37
2023-12-30T21:35:49.699Z,4.53
2023-12-30T21:39:51.275Z,2.73
2023-12-30T21:43:54.113Z,1.20
2023-12-30T21:47:57.135Z,2.93
2023-12-30T21:51:58.819Z,2.20
2023-12-30T21:56:00.451Z,2.33
2023-12-30T22:00:02.156Z,1.60
2023-12-30T22:04:05.958Z,2.83
2023-12-30T22:08:07.764Z,6.23
2023-12-30T22:12:09.322Z,3.57
2023-12-30T22:16:11.938Z,3.23
2023-12-30T22:20:14.949Z,3.20
2023-12-30T22:24:16.573Z,2.60
2023-12-30T22:28:18.215Z,6.43
2023-12-30T22:32:21.031Z,4.13
2023-12-30T22:36:28.026Z,0.83
2023-12-30T22:40:29.892Z,5.40
2023-12-30T22:44:31.524Z,5.23
2023-12-30T22:48:33.170Z,1.47
2023-12-30T22:52:36.769Z,3.07
2023-12-30T22:56:38.348Z,4.87
2023-12-30T23:00:40.164Z,2.93
2023-12-30T23:04:41.899Z,5.53
2023-12-30T23:08:44.821Z,2.80
2023-12-30T23:12:46.490Z,3.10
2023-12-30T23:16:48.445Z,4.73
2023-12-30T23:20:50.160Z,2.03
2023-12-30T23:24:53.116Z,3.57
2023-12-30T23:28:55.912Z,4.70
2023-12-30T23:32:57.487Z,2.83
2023-12-30T23:36:59.308Z,2.77
2023-12-30T23:41:02.490Z,2.93
2023-12-30T23:45:05.072Z,3.80
2023-12-30T23:49:06.826Z,2.30
2023-12-30T23:53:08.419Z,2.63
2023-12-30T23:57:11.394Z,2.10
